sensor_id;sensor_type;location;lat;lon;timestamp;pressure;altitude;pressure_sealevel;temperature;humidity
82807;BME280;72563;44.816;20.484;2024-03-08T00:00:11;100776.09;;;7.93;74.21
82807;BME280;72563;44.816;20.484;2024-03-08T00:02:38;100782.56;;;8.02;74.20
82807;BME280;72563;44.816;20.484;2024-03-08T00:05:05;100776.06;;;7.69;74.89
82807;BME280;72563;44.816;20.484;2024-03-08T00:07:31;100778.69;;;7.79;75.18
82807;BME280;72563;44.816;20.484;2024-03-08T00:09:57;100774.25;;;8.12;75.33
82807;BME280;72563;44.816;20.484;2024-03-08T00:12:23;100786.16;;;8.26;73.79
82807;BME280;72563;44.816;20.484;2024-03-08T00:14:51;100772.13;;;8.32;73.75
82807;BME280;72563;44.816;20.484;2024-03-08T00:17:16;100779.84;;;8.25;74.01
82807;BME280;72563;44.816;20.484;2024-03-08T00:19:42;100783.22;;;7.94;74.90
82807;BME280;72563;44.816;20.484;2024-03-08T00:22:08;100779.75;;;7.83;76.78
82807;BME280;72563;44.816;20.484;2024-03-08T00:24:35;100785.47;;;7.87;75.09
82807;BME280;72563;44.816;20.484;2024-03-08T00:27:00;100777.22;;;7.29;76.18
82807;BME280;72563;44.816;20.484;2024-03-08T00:29:27;100781.28;;;7.66;77.34
82807;BME280;72563;44.816;20.484;2024-03-08T00:31:52;100786.50;;;7.91;75.94
82807;BME280;72563;44.816;20.484;2024-03-08T00:34:18;100780.09;;;7.14;77.85
82807;BME280;72563;44.816;20.484;2024-03-08T00:36:44;100783.56;;;7.53;77.26
82807;BME280;72563;44.816;20.484;2024-03-08T00:39:10;100776.59;;;7.95;76.15
82807;BME280;72563;44.816;20.484;2024-03-08T00:41:37;100770.78;;;8.01;75.04
82807;BME280;72563;44.816;20.484;2024-03-08T00:44:03;100777.69;;;7.70;76.39
82807;BME280;72563;44.816;20.484;2024-03-08T00:46:30;100779.34;;;7.37;78.33
82807;BME280;72563;44.816;20.484;2024-03-08T00:48:56;100775.22;;;7.97;76.28
82807;BME280;72563;44.816;20.484;2024-03-08T00:51:22;100776.69;;;8.13;74.86
82807;BME280;72563;44.816;20.484;2024-03-08T00:53:48;100768.72;;;7.60;75.62
82807;BME280;72563;44.816;20.484;2024-03-08T00:56:13;100774.88;;;7.13;77.95
82807;BME280;72563;44.816;20.484;2024-03-08T00:58:39;100750.97;;;7.23;77.95
82807;BME280;72563;44.816;20.484;2024-03-08T01:01:05;100756.09;;;7.64;77.40
82807;BME280;72563;44.816;20.484;2024-03-08T01:03:31;100745.53;;;7.52;76.96
82807;BME280;72563;44.816;20.484;2024-03-08T01:05:58;100764.66;;;7.57;76.91
82807;BME280;72563;44.816;20.484;2024-03-08T01:08:27;100754.13;;;7.69;76.68
82807;BME280;72563;44.816;20.484;2024-03-08T01:10:53;100767.38;;;7.28;77.49
82807;BME280;72563;44.816;20.484;2024-03-08T01:13:18;100773.44;;;7.54;77.00
82807;BME280;72563;44.816;20.484;2024-03-08T01:15:45;100757.41;;;7.42;76.74
82807;BME280;72563;44.816;20.484;2024-03-08T01:18:11;100770.41;;;7.55;76.69
82807;BME280;72563;44.816;20.484;2024-03-08T01:20:37;100754.00;;;7.22;77.51
82807;BME280;72563;44.816;20.484;2024-03-08T01:23:03;100774.22;;;7.60;77.69
82807;BME280;72563;44.816;20.484;2024-03-08T01:25:31;100776.00;;;7.74;77.18
82807;BME280;72563;44.816;20.484;2024-03-08T01:27:57;100769.63;;;7.21;77.61
82807;BME280;72563;44.816;20.484;2024-03-08T01:30:23;100780.31;;;7.18;78.00
82807;BME280;72563;44.816;20.484;2024-03-08T01:32:48;100744.94;;;7.26;78.16
82807;BME280;72563;44.816;20.484;2024-03-08T01:35:14;100770.19;;;7.52;78.04
82807;BME280;72563;44.816;20.484;2024-03-08T01:37:39;100775.09;;;7.55;77.67
82807;BME280;72563;44.816;20.484;2024-03-08T01:40:06;100769.34;;;7.51;77.77
82807;BME280;72563;44.816;20.484;2024-03-08T01:42:34;100778.88;;;7.25;78.54
82807;BME280;72563;44.816;20.484;2024-03-08T01:45:05;100774.78;;;7.28;78.04
82807;BME280;72563;44.816;20.484;2024-03-08T01:47:32;100771.69;;;7.01;79.12
82807;BME280;72563;44.816;20.484;2024-03-08T01:49:59;100773.31;;;7.40;78.77
82807;BME280;72563;44.816;20.484;2024-03-08T01:52:28;100775.47;;;7.10;78.98
82807;BME280;72563;44.816;20.484;2024-03-08T01:54:54;100776.44;;;6.85;80.75
82807;BME280;72563;44.816;20.484;2024-03-08T01:57:21;100784.78;;;7.42;78.33
82807;BME280;72563;44.816;20.484;2024-03-08T01:59:46;100775.84;;;7.32;77.92
82807;BME280;72563;44.816;20.484;2024-03-08T02:02:14;100783.56;;;7.53;76.70
82807;BME280;72563;44.816;20.484;2024-03-08T02:04:42;100782.72;;;7.58;76.75
82807;BME280;72563;44.816;20.484;2024-03-08T02:07:08;100786.88;;;7.17;77.88
82807;BME280;72563;44.816;20.484;2024-03-08T02:09:33;100781.03;;;7.62;77.31
82807;BME280;72563;44.816;20.484;2024-03-08T02:11:59;100781.91;;;7.57;76.42
82807;BME280;72563;44.816;20.484;2024-03-08T02:14:25;100782.69;;;7.29;78.44
82807;BME280;72563;44.816;20.484;2024-03-08T02:16:50;100775.22;;;7.69;77.97
82807;BME280;72563;44.816;20.484;2024-03-08T02:19:16;100783.25;;;7.60;77.66
82807;BME280;72563;44.816;20.484;2024-03-08T02:21:42;100772.25;;;7.65;77.11
82807;BME280;72563;44.816;20.484;2024-03-08T02:24:09;100773.84;;;7.42;77.60
82807;BME280;72563;44.816;20.484;2024-03-08T02:26:35;100778.41;;;7.52;77.29
82807;BME280;72563;44.816;20.484;2024-03-08T02:29:02;100771.97;;;7.67;77.28
82807;BME280;72563;44.816;20.484;2024-03-08T02:31:28;100783.13;;;7.75;76.08
82807;BME280;72563;44.816;20.484;2024-03-08T02:33:53;100775.44;;;7.43;78.47
82807;BME280;72563;44.816;20.484;2024-03-08T02:36:19;100781.00;;;7.38;77.51
82807;BME280;72563;44.816;20.484;2024-03-08T02:38:45;100774.69;;;7.67;76.63
82807;BME280;72563;44.816;20.484;2024-03-08T02:41:10;100784.31;;;7.64;76.26
82807;BME280;72563;44.816;20.484;2024-03-08T02:43:36;100779.84;;;7.44;77.09
82807;BME280;72563;44.816;20.484;2024-03-08T02:46:02;100778.84;;;7.64;77.33
82807;BME280;72563;44.816;20.484;2024-03-08T02:48:27;100787.47;;;7.76;77.42
82807;BME280;72563;44.816;20.484;2024-03-08T02:50:53;100779.88;;;7.97;75.77
82807;BME280;72563;44.816;20.484;2024-03-08T02:53:19;100789.13;;;8.06;75.24
82807;BME280;72563;44.816;20.484;2024-03-08T02:55:44;100773.56;;;7.73;76.08
82807;BME280;72563;44.816;20.484;2024-03-08T02:58:10;100766.16;;;7.97;74.89
82807;BME280;72563;44.816;20.484;2024-03-08T03:00:39;100785.88;;;7.99;75.05
82807;BME280;72563;44.816;20.484;2024-03-08T03:03:04;100777.00;;;7.21;77.51
82807;BME280;72563;44.816;20.484;2024-03-08T03:05:32;100784.09;;;7.55;76.70
82807;BME280;72563;44.816;20.484;2024-03-08T03:07:58;100774.13;;;7.70;76.39
82807;BME280;72563;44.816;20.484;2024-03-08T03:10:24;100785.75;;;7.85;75.83
82807;BME280;72563;44.816;20.484;2024-03-08T03:12:50;100777.47;;;7.62;75.33
82807;BME280;72563;44.816;20.484;2024-03-08T03:15:16;100785.00;;;7.80;75.83
82807;BME280;72563;44.816;20.484;2024-03-08T03:17:48;100786.41;;;8.01;75.97
82807;BME280;72563;44.816;20.484;2024-03-08T03:20:17;100793.09;;;7.27;77.33
82807;BME280;72563;44.816;20.484;2024-03-08T03:22:49;100790.81;;;7.06;78.78
82807;BME280;72563;44.816;20.484;2024-03-08T03:25:20;100798.25;;;7.00;78.24
82807;BME280;72563;44.816;20.484;2024-03-08T03:27:54;100794.63;;;7.05;78.80
82807;BME280;72563;44.816;20.484;2024-03-08T03:30:23;100779.00;;;7.44;77.52
82807;BME280;72563;44.816;20.484;2024-03-08T03:32:49;100791.50;;;7.26;77.68
82807;BME280;72563;44.816;20.484;2024-03-08T03:35:17;100800.69;;;7.40;76.38
82807;BME280;72563;44.816;20.484;2024-03-08T03:37:43;100799.84;;;7.74;76.58
82807;BME280;72563;44.816;20.484;2024-03-08T03:40:11;100802.78;;;7.82;75.43
82807;BME280;72563;44.816;20.484;2024-03-08T03:42:38;100792.28;;;7.89;75.17
82807;BME280;72563;44.816;20.484;2024-03-08T03:45:05;100800.34;;;8.04;74.38
82807;BME280;72563;44.816;20.484;2024-03-08T03:47:31;100772.63;;;7.82;74.99
82807;BME280;72563;44.816;20.484;2024-03-08T03:49:57;100800.19;;;7.96;74.74
82807;BME280;72563;44.816;20.484;2024-03-08T03:52:27;100800.00;;;8.11;74.00
82807;BME280;72563;44.816;20.484;2024-03-08T03:54:53;100802.03;;;7.72;76.23
82807;BME280;72563;44.816;20.484;2024-03-08T03:57:18;100801.50;;;7.98;75.01
82807;BME280;72563;44.816;20.484;2024-03-08T03:59:45;100808.19;;;8.16;73.85
82807;BME280;72563;44.816;20.484;2024-03-08T04:02:13;100810.38;;;7.23;76.30
82807;BME280;72563;44.816;20.484;2024-03-08T04:04:38;100814.56;;;7.83;75.39
82807;BME280;72563;44.816;20.484;2024-03-08T04:07:04;100818.81;;;8.22;73.71
82807;BME280;72563;44.816;20.484;2024-03-08T04:09:30;100814.75;;;8.15;74.57
82807;BME280;72563;44.816;20.484;2024-03-08T04:11:55;100809.53;;;8.18;73.71
82807;BME280;72563;44.816;20.484;2024-03-08T04:14:23;100814.53;;;8.11;73.91
82807;BME280;72563;44.816;20.484;2024-03-08T04:16:48;100807.81;;;7.99;74.39
82807;BME280;72563;44.816;20.484;2024-03-08T04:19:14;100803.28;;;7.84;73.43
82807;BME280;72563;44.816;20.484;2024-03-08T04:21:39;100805.59;;;8.01;74.21
82807;BME280;72563;44.816;20.484;2024-03-08T04:24:05;100816.00;;;8.32;73.21
82807;BME280;72563;44.816;20.484;2024-03-08T04:26:31;100822.16;;;8.43;72.45
82807;BME280;72563;44.816;20.484;2024-03-08T04:28:57;100810.84;;;8.26;73.16
82807;BME280;72563;44.816;20.484;2024-03-08T04:31:22;100820.53;;;8.42;72.42
82807;BME280;72563;44.816;20.484;2024-03-08T04:33:48;100822.94;;;8.20;72.63
82807;BME280;72563;44.816;20.484;2024-03-08T04:36:14;100826.78;;;8.19;73.16
82807;BME280;72563;44.816;20.484;2024-03-08T04:38:40;100816.56;;;8.01;74.13
82807;BME280;72563;44.816;20.484;2024-03-08T04:41:06;100807.38;;;7.87;73.89
82807;BME280;72563;44.816;20.484;2024-03-08T04:43:33;100809.69;;;8.32;72.29
82807;BME280;72563;44.816;20.484;2024-03-08T04:45:59;100829.22;;;8.49;72.28
82807;BME280;72563;44.816;20.484;2024-03-08T04:48:25;100816.28;;;7.74;74.18
82807;BME280;72563;44.816;20.484;2024-03-08T04:50:53;100833.16;;;7.86;74.46
82807;BME280;72563;44.816;20.484;2024-03-08T04:53:19;100819.97;;;8.16;73.00
82807;BME280;72563;44.816;20.484;2024-03-08T04:55:45;100816.00;;;8.32;72.83
82807;BME280;72563;44.816;20.484;2024-03-08T04:58:11;100821.25;;;8.24;72.06
82807;BME280;72563;44.816;20.484;2024-03-08T05:00:36;100824.91;;;8.14;73.01
82807;BME280;72563;44.816;20.484;2024-03-08T05:03:02;100812.56;;;8.17;72.44
82807;BME280;72563;44.816;20.484;2024-03-08T05:05:28;100825.59;;;8.54;72.43
82807;BME280;72563;44.816;20.484;2024-03-08T05:07:54;100813.94;;;8.14;71.61
82807;BME280;72563;44.816;20.484;2024-03-08T05:10:20;100836.25;;;7.79;73.39
82807;BME280;72563;44.816;20.484;2024-03-08T05:12:45;100821.91;;;7.87;73.59
82807;BME280;72563;44.816;20.484;2024-03-08T05:15:11;100832.66;;;7.84;72.50
82807;BME280;72563;44.816;20.484;2024-03-08T05:17:37;100812.13;;;7.76;71.99
82807;BME280;72563;44.816;20.484;2024-03-08T05:20:03;100838.56;;;8.19;72.01
82807;BME280;72563;44.816;20.484;2024-03-08T05:22:33;100830.56;;;8.28;70.46
82807;BME280;72563;44.816;20.484;2024-03-08T05:24:59;100838.97;;;8.37;70.61
82807;BME280;72563;44.816;20.484;2024-03-08T05:27:25;100839.34;;;7.96;71.64
82807;BME280;72563;44.816;20.484;2024-03-08T05:29:50;100842.25;;;7.81;72.06
82807;BME280;72563;44.816;20.484;2024-03-08T05:32:16;100840.03;;;8.12;71.31
82807;BME280;72563;44.816;20.484;2024-03-08T05:34:41;100834.13;;;8.52;70.88
82807;BME280;72563;44.816;20.484;2024-03-08T05:37:08;100833.34;;;7.94;70.54
82807;BME280;72563;44.816;20.484;2024-03-08T05:39:33;100840.88;;;7.84;71.72
82807;BME280;72563;44.816;20.484;2024-03-08T05:41:59;100854.66;;;8.31;71.99
82807;BME280;72563;44.816;20.484;2024-03-08T05:44:25;100850.19;;;8.11;70.57
82807;BME280;72563;44.816;20.484;2024-03-08T05:46:54;100849.22;;;7.64;72.12
82807;BME280;72563;44.816;20.484;2024-03-08T05:49:19;100847.09;;;8.18;72.34
82807;BME280;72563;44.816;20.484;2024-03-08T05:51:46;100857.81;;;8.14;70.24
82807;BME280;72563;44.816;20.484;2024-03-08T05:54:13;100851.03;;;8.07;69.94
82807;BME280;72563;44.816;20.484;2024-03-08T05:56:39;100858.50;;;7.68;71.83
82807;BME280;72563;44.816;20.484;2024-03-08T05:59:09;100869.53;;;8.25;71.19
82807;BME280;72563;44.816;20.484;2024-03-08T06:01:35;100870.72;;;8.14;70.51
82807;BME280;72563;44.816;20.484;2024-03-08T06:04:02;100864.13;;;8.44;69.82
82807;BME280;72563;44.816;20.484;2024-03-08T06:06:29;100875.28;;;8.52;68.24
82807;BME280;72563;44.816;20.484;2024-03-08T06:08:55;100874.59;;;8.65;67.49
82807;BME280;72563;44.816;20.484;2024-03-08T06:11:24;100869.16;;;8.08;68.96
82807;BME280;72563;44.816;20.484;2024-03-08T06:13:52;100871.06;;;8.07;69.50
82807;BME280;72563;44.816;20.484;2024-03-08T06:16:27;100873.59;;;8.56;68.27
82807;BME280;72563;44.816;20.484;2024-03-08T06:18:57;100880.84;;;8.71;67.29
82807;BME280;72563;44.816;20.484;2024-03-08T06:21:26;100864.13;;;8.15;68.27
82807;BME280;72563;44.816;20.484;2024-03-08T06:23:54;100885.59;;;8.08;68.68
82807;BME280;72563;44.816;20.484;2024-03-08T06:26:23;100882.56;;;8.38;69.28
82807;BME280;72563;44.816;20.484;2024-03-08T06:28:50;100881.88;;;8.51;68.42
82807;BME280;72563;44.816;20.484;2024-03-08T06:31:16;100893.16;;;8.73;67.11
82807;BME280;72563;44.816;20.484;2024-03-08T06:33:42;100880.72;;;8.00;68.02
82807;BME280;72563;44.816;20.484;2024-03-08T06:36:09;100881.31;;;8.25;67.98
82807;BME280;72563;44.816;20.484;2024-03-08T06:38:34;100852.22;;;8.29;67.28
82807;BME280;72563;44.816;20.484;2024-03-08T06:41:00;100871.81;;;8.42;68.27
82807;BME280;72563;44.816;20.484;2024-03-08T06:43:28;100888.06;;;8.04;68.38
82807;BME280;72563;44.816;20.484;2024-03-08T06:45:59;100878.72;;;8.39;67.50
82807;BME280;72563;44.816;20.484;2024-03-08T06:48:25;100895.16;;;8.39;67.87
82807;BME280;72563;44.816;20.484;2024-03-08T06:50:50;100897.41;;;8.61;68.39
82807;BME280;72563;44.816;20.484;2024-03-08T06:53:16;100891.59;;;8.67;66.74
82807;BME280;72563;44.816;20.484;2024-03-08T06:55:44;100892.09;;;8.69;67.65
82807;BME280;72563;44.816;20.484;2024-03-08T06:58:10;100901.03;;;8.56;68.35
82807;BME280;72563;44.816;20.484;2024-03-08T07:00:36;100900.56;;;8.73;67.96
82807;BME280;72563;44.816;20.484;2024-03-08T07:03:02;100910.97;;;8.47;67.88
82807;BME280;72563;44.816;20.484;2024-03-08T07:05:29;100899.41;;;7.93;69.08
82807;BME280;72563;44.816;20.484;2024-03-08T07:07:55;100888.56;;;8.11;68.47
82807;BME280;72563;44.816;20.484;2024-03-08T07:10:22;100891.72;;;8.28;68.58
82807;BME280;72563;44.816;20.484;2024-03-08T07:12:50;100894.91;;;8.64;66.86
82807;BME280;72563;44.816;20.484;2024-03-08T07:15:16;100897.59;;;8.69;66.92
82807;BME280;72563;44.816;20.484;2024-03-08T07:17:45;100903.00;;;8.51;67.12
82807;BME280;72563;44.816;20.484;2024-03-08T07:20:11;100903.59;;;8.95;65.75
82807;BME280;72563;44.816;20.484;2024-03-08T07:22:39;100908.50;;;9.16;64.82
82807;BME280;72563;44.816;20.484;2024-03-08T07:25:05;100905.53;;;9.13;65.39
82807;BME280;72563;44.816;20.484;2024-03-08T07:27:54;100911.00;;;8.18;68.58
82807;BME280;72563;44.816;20.484;2024-03-08T07:30:21;100906.38;;;8.14;67.26
82807;BME280;72563;44.816;20.484;2024-03-08T07:33:06;100893.03;;;7.69;68.99
82807;BME280;72563;44.816;20.484;2024-03-08T07:35:35;100911.38;;;8.35;67.15
82807;BME280;72563;44.816;20.484;2024-03-08T07:38:06;100920.94;;;8.67;66.72
82807;BME280;72563;44.816;20.484;2024-03-08T07:40:36;100911.91;;;9.08;66.03
82807;BME280;72563;44.816;20.484;2024-03-08T07:43:06;100910.78;;;8.91;65.43
82807;BME280;72563;44.816;20.484;2024-03-08T07:45:31;100914.44;;;9.05;66.19
82807;BME280;72563;44.816;20.484;2024-03-08T07:47:57;100912.97;;;8.42;66.53
82807;BME280;72563;44.816;20.484;2024-03-08T07:50:23;100898.91;;;8.72;66.05
82807;BME280;72563;44.816;20.484;2024-03-08T07:52:48;100911.88;;;8.90;66.08
82807;BME280;72563;44.816;20.484;2024-03-08T07:55:14;100920.69;;;9.29;64.96
82807;BME280;72563;44.816;20.484;2024-03-08T07:57:40;100920.97;;;8.62;64.71
82807;BME280;72563;44.816;20.484;2024-03-08T08:00:06;100916.84;;;8.88;65.03
82807;BME280;72563;44.816;20.484;2024-03-08T08:02:36;100919.88;;;8.86;64.79
82807;BME280;72563;44.816;20.484;2024-03-08T08:05:02;100919.50;;;9.35;64.88
82807;BME280;72563;44.816;20.484;2024-03-08T08:07:29;100916.41;;;9.42;63.13
82807;BME280;72563;44.816;20.484;2024-03-08T08:09:54;100927.41;;;9.42;62.55
82807;BME280;72563;44.816;20.484;2024-03-08T08:12:20;100911.41;;;9.25;63.55
82807;BME280;72563;44.816;20.484;2024-03-08T08:14:46;100924.41;;;8.77;65.91
82807;BME280;72563;44.816;20.484;2024-03-08T08:17:12;100925.53;;;8.48;66.19
82807;BME280;72563;44.816;20.484;2024-03-08T08:19:38;100911.47;;;8.78;65.29
82807;BME280;72563;44.816;20.484;2024-03-08T08:22:05;100922.50;;;8.49;66.23
82807;BME280;72563;44.816;20.484;2024-03-08T08:24:34;100919.97;;;8.81;66.01
82807;BME280;72563;44.816;20.484;2024-03-08T08:26:59;100904.75;;;8.89;64.78
82807;BME280;72563;44.816;20.484;2024-03-08T08:29:26;100924.44;;;9.38;64.73
82807;BME280;72563;44.816;20.484;2024-03-08T08:31:51;100909.22;;;8.61;65.48
82807;BME280;72563;44.816;20.484;2024-03-08T08:34:17;100925.06;;;9.11;64.44
82807;BME280;72563;44.816;20.484;2024-03-08T08:36:45;100932.75;;;9.52;64.48
82807;BME280;72563;44.816;20.484;2024-03-08T08:39:10;100930.97;;;9.61;63.48
82807;BME280;72563;44.816;20.484;2024-03-08T08:41:42;100926.72;;;8.65;65.51
82807;BME280;72563;44.816;20.484;2024-03-08T08:44:08;100930.47;;;9.16;64.56
82807;BME280;72563;44.816;20.484;2024-03-08T08:46:38;100926.94;;;8.11;66.55
82807;BME280;72563;44.816;20.484;2024-03-08T08:49:04;100940.50;;;8.60;65.68
82807;BME280;72563;44.816;20.484;2024-03-08T08:51:30;100929.44;;;9.12;64.89
82807;BME280;72563;44.816;20.484;2024-03-08T08:53:59;100930.59;;;9.49;64.96
82807;BME280;72563;44.816;20.484;2024-03-08T08:56:25;100935.34;;;9.80;63.73
82807;BME280;72563;44.816;20.484;2024-03-08T08:58:51;100911.69;;;8.34;65.81
82807;BME280;72563;44.816;20.484;2024-03-08T09:01:19;100940.72;;;8.64;66.47
82807;BME280;72563;44.816;20.484;2024-03-08T09:03:44;100938.09;;;9.01;66.79
82807;BME280;72563;44.816;20.484;2024-03-08T09:06:12;100937.75;;;9.07;65.32
82807;BME280;72563;44.816;20.484;2024-03-08T09:08:41;100929.88;;;9.01;64.76
82807;BME280;72563;44.816;20.484;2024-03-08T09:11:07;100927.41;;;8.99;65.76
82807;BME280;72563;44.816;20.484;2024-03-08T09:13:33;100925.00;;;9.35;64.42
82807;BME280;72563;44.816;20.484;2024-03-08T09:15:59;100924.03;;;9.63;63.95
82807;BME280;72563;44.816;20.484;2024-03-08T09:18:25;100924.56;;;9.65;64.00
82807;BME280;72563;44.816;20.484;2024-03-08T09:20:51;100931.50;;;9.63;63.85
82807;BME280;72563;44.816;20.484;2024-03-08T09:23:21;100926.88;;;9.77;63.61
82807;BME280;72563;44.816;20.484;2024-03-08T09:25:47;100925.09;;;9.67;63.77
82807;BME280;72563;44.816;20.484;2024-03-08T09:28:12;100930.50;;;9.91;63.59
82807;BME280;72563;44.816;20.484;2024-03-08T09:30:39;100913.41;;;9.75;63.74
82807;BME280;72563;44.816;20.484;2024-03-08T09:33:05;100916.66;;;9.96;62.31
82807;BME280;72563;44.816;20.484;2024-03-08T09:35:32;100915.53;;;10.16;62.94
82807;BME280;72563;44.816;20.484;2024-03-08T09:37:57;100915.63;;;10.11;63.11
82807;BME280;72563;44.816;20.484;2024-03-08T09:40:23;100918.81;;;9.99;62.44
82807;BME280;72563;44.816;20.484;2024-03-08T09:42:51;100922.88;;;9.51;63.32
82807;BME280;72563;44.816;20.484;2024-03-08T09:45:20;100932.59;;;9.62;63.92
82807;BME280;72563;44.816;20.484;2024-03-08T09:47:47;100928.94;;;10.03;63.23
82807;BME280;72563;44.816;20.484;2024-03-08T09:50:14;100859.88;;;8.98;64.01
82807;BME280;72563;44.816;20.484;2024-03-08T09:52:49;100918.31;;;9.78;63.66
82807;BME280;72563;44.816;20.484;2024-03-08T09:55:15;100926.56;;;10.29;62.31
82807;BME280;72563;44.816;20.484;2024-03-08T09:57:43;100925.69;;;10.47;60.99
82807;BME280;72563;44.816;20.484;2024-03-08T10:00:27;100931.69;;;10.36;61.68
82807;BME280;72563;44.816;20.484;2024-03-08T10:02:53;100899.06;;;10.29;61.11
82807;BME280;72563;44.816;20.484;2024-03-08T10:05:19;100921.91;;;10.43;61.29
82807;BME280;72563;44.816;20.484;2024-03-08T10:07:45;100920.63;;;10.54;61.32
82807;BME280;72563;44.816;20.484;2024-03-08T10:10:11;100934.28;;;10.59;60.91
82807;BME280;72563;44.816;20.484;2024-03-08T10:12:40;100941.63;;;10.50;62.16
82807;BME280;72563;44.816;20.484;2024-03-08T10:15:07;100939.88;;;10.54;61.33
82807;BME280;72563;44.816;20.484;2024-03-08T10:17:36;100938.78;;;10.96;61.00
82807;BME280;72563;44.816;20.484;2024-03-08T10:20:02;100929.13;;;10.85;60.33
82807;BME280;72563;44.816;20.484;2024-03-08T10:22:29;100941.31;;;10.65;61.75
82807;BME280;72563;44.816;20.484;2024-03-08T10:24:55;100934.59;;;10.58;61.35
82807;BME280;72563;44.816;20.484;2024-03-08T10:27:20;100935.09;;;10.14;62.88
82807;BME280;72563;44.816;20.484;2024-03-08T10:29:47;100939.91;;;10.68;61.51
82807;BME280;72563;44.816;20.484;2024-03-08T10:32:13;100938.09;;;11.18;60.75
82807;BME280;72563;44.816;20.484;2024-03-08T10:34:39;100936.84;;;10.97;60.77
82807;BME280;72563;44.816;20.484;2024-03-08T10:37:07;100937.84;;;10.73;60.92
82807;BME280;72563;44.816;20.484;2024-03-08T10:39:36;100922.75;;;11.25;60.99
82807;BME280;72563;44.816;20.484;2024-03-08T10:42:04;100872.66;;;11.10;59.65
82807;BME280;72563;44.816;20.484;2024-03-08T10:44:32;100917.66;;;11.54;59.42
82807;BME280;72563;44.816;20.484;2024-03-08T10:47:17;100927.94;;;11.27;60.32
82807;BME280;72563;44.816;20.484;2024-03-08T10:50:10;100925.47;;;11.39;59.70
82807;BME280;72563;44.816;20.484;2024-03-08T10:52:38;100907.88;;;11.62;58.82
82807;BME280;72563;44.816;20.484;2024-03-08T10:55:05;100858.47;;;11.16;59.77
82807;BME280;72563;44.816;20.484;2024-03-08T10:57:38;100918.81;;;11.53;59.27
82807;BME280;72563;44.816;20.484;2024-03-08T11:00:06;100913.34;;;11.26;60.84
82807;BME280;72563;44.816;20.484;2024-03-08T11:02:35;100911.47;;;11.49;59.85
82807;BME280;72563;44.816;20.484;2024-03-08T11:05:03;100913.63;;;11.52;59.45
82807;BME280;72563;44.816;20.484;2024-03-08T11:07:33;100917.34;;;11.34;61.02
82807;BME280;72563;44.816;20.484;2024-03-08T11:10:03;100904.06;;;11.36;59.84
82807;BME280;72563;44.816;20.484;2024-03-08T11:12:37;100910.53;;;10.91;60.98
82807;BME280;72563;44.816;20.484;2024-03-08T11:15:10;100907.47;;;10.92;60.58
82807;BME280;72563;44.816;20.484;2024-03-08T11:20:11;100908.09;;;11.03;61.20
82807;BME280;72563;44.816;20.484;2024-03-08T11:22:54;100890.06;;;11.32;59.23
82807;BME280;72563;44.816;20.484;2024-03-08T11:25:37;100880.41;;;11.21;60.83
82807;BME280;72563;44.816;20.484;2024-03-08T11:28:26;100897.41;;;11.37;60.14
82807;BME280;72563;44.816;20.484;2024-03-08T11:33:30;100897.94;;;11.75;58.58
82807;BME280;72563;44.816;20.484;2024-03-08T11:36:11;100887.59;;;11.80;59.41
82807;BME280;72563;44.816;20.484;2024-03-08T11:38:42;100871.97;;;11.76;58.56
82807;BME280;72563;44.816;20.484;2024-03-08T11:41:09;100865.09;;;11.51;58.26
82807;BME280;72563;44.816;20.484;2024-03-08T11:43:40;100878.25;;;11.32;59.41
82807;BME280;72563;44.816;20.484;2024-03-08T11:46:14;100877.47;;;11.18;59.88
82807;BME280;72563;44.816;20.484;2024-03-08T11:48:43;100884.38;;;11.64;58.83
82807;BME280;72563;44.816;20.484;2024-03-08T11:51:14;100876.88;;;12.01;57.65
82807;BME280;72563;44.816;20.484;2024-03-08T11:53:41;100872.41;;;11.69;59.01
82807;BME280;72563;44.816;20.484;2024-03-08T11:56:11;100866.63;;;11.08;59.73
82807;BME280;72563;44.816;20.484;2024-03-08T11:58:38;100867.97;;;11.24;58.67
82807;BME280;72563;44.816;20.484;2024-03-08T12:01:13;100868.94;;;11.63;58.26
82807;BME280;72563;44.816;20.484;2024-03-08T12:03:42;100854.53;;;12.11;56.70
82807;BME280;72563;44.816;20.484;2024-03-08T12:06:08;100856.84;;;11.95;57.07
82807;BME280;72563;44.816;20.484;2024-03-08T12:08:37;100865.31;;;12.21;56.94
82807;BME280;72563;44.816;20.484;2024-03-08T12:11:06;100855.66;;;12.40;55.54
82807;BME280;72563;44.816;20.484;2024-03-08T12:13:34;100841.84;;;12.40;55.23
82807;BME280;72563;44.816;20.484;2024-03-08T12:16:02;100855.59;;;12.01;56.45
82807;BME280;72563;44.816;20.484;2024-03-08T12:18:36;100845.50;;;12.19;56.01
82807;BME280;72563;44.816;20.484;2024-03-08T12:21:11;100820.66;;;12.19;55.14
82807;BME280;72563;44.816;20.484;2024-03-08T12:23:39;100831.78;;;11.83;56.79
82807;BME280;72563;44.816;20.484;2024-03-08T12:26:24;100844.00;;;12.43;55.98
82807;BME280;72563;44.816;20.484;2024-03-08T12:28:51;100847.88;;;12.90;54.35
82807;BME280;72563;44.816;20.484;2024-03-08T12:31:17;100856.59;;;11.75;56.54
82807;BME280;72563;44.816;20.484;2024-03-08T12:36:15;100846.59;;;12.48;55.87
82807;BME280;72563;44.816;20.484;2024-03-08T12:38:44;100845.56;;;12.75;54.10
82807;BME280;72563;44.816;20.484;2024-03-08T12:41:16;100850.78;;;12.85;53.61
82807;BME280;72563;44.816;20.484;2024-03-08T12:43:46;100845.16;;;12.99;53.60
82807;BME280;72563;44.816;20.484;2024-03-08T12:46:20;100850.22;;;12.58;55.33
82807;BME280;72563;44.816;20.484;2024-03-08T12:48:46;100846.84;;;12.69;53.85
82807;BME280;72563;44.816;20.484;2024-03-08T12:51:13;100833.63;;;12.18;56.04
82807;BME280;72563;44.816;20.484;2024-03-08T12:53:39;100821.81;;;12.66;55.21
82807;BME280;72563;44.816;20.484;2024-03-08T12:56:30;100841.78;;;12.23;56.31